createdAt,value
2023-02-11T00:06:00.844Z,77.97
2023-02-11T00:16:08.149Z,77.81
2023-02-11T00:26:36.655Z,77.89
2023-02-11T00:36:39.115Z,77.02
2023-02-11T00:46:41.538Z,78.46
2023-02-11T00:56:43.770Z,77.75
2023-02-11T01:06:46.023Z,76.80
2023-02-11T01:16:48.219Z,75.16
2023-02-11T01:26:50.474Z,71.90
2023-02-11T01:36:57.946Z,70.54
2023-02-11T01:47:00.633Z,70.68
2023-02-11T01:57:22.279Z,71.24
2023-02-11T02:08:05.620Z,68.94
2023-02-11T02:18:10.449Z,68.23
2023-02-11T02:28:45.731Z,67.75
2023-02-11T02:39:04.392Z,68.17
2023-02-11T02:49:12.489Z,69.31
2023-02-11T02:59:34.128Z,69.39
2023-02-11T03:09:55.105Z,70.22
2023-02-11T03:20:00.138Z,69.90
2023-02-11T03:30:08.644Z,71.04
2023-02-11T03:40:21.282Z,71.24
2023-02-11T03:50:26.398Z,71.77
2023-02-11T04:00:34.745Z,71.33
2023-02-11T04:10:37.349Z,70.65
2023-02-11T04:20:39.693Z,71.20
2023-02-11T04:30:41.936Z,69.70
2023-02-11T04:40:44.190Z,69.32
2023-02-11T04:50:46.362Z,69.35
2023-02-11T06:05:10.499Z,74.50
2023-02-11T06:15:12.723Z,73.10
2023-02-11T06:25:15.196Z,72.89
2023-02-11T06:35:17.424Z,72.60
2023-02-11T06:45:20.968Z,73.29
2023-02-11T06:55:23.208Z,73.98
2023-02-11T07:05:25.682Z,73.39
2023-02-11T07:15:27.989Z,73.90
2023-02-11T07:25:30.306Z,73.23
2023-02-11T07:35:32.486Z,72.95
2023-02-11T07:45:34.777Z,71.82
2023-02-11T07:55:37.017Z,71.02
2023-02-11T08:05:39.353Z,72.35
2023-02-11T08:15:41.513Z,72.35
2023-02-11T08:25:43.743Z,71.58
2023-02-11T08:35:46.002Z,71.03
2023-02-11T08:45:48.698Z,71.25
2023-02-11T08:55:55.544Z,71.64
2023-02-11T09:05:57.890Z,71.34
2023-02-11T09:16:02.036Z,68.95
2023-02-11T09:26:09.709Z,67.38
2023-02-11T09:36:12.014Z,68.42
2023-02-11T09:46:17.260Z,69.92
2023-02-11T09:56:19.546Z,69.83
2023-02-11T10:06:24.530Z,67.98
2023-02-11T10:16:43.302Z,68.29
2023-02-11T10:26:46.450Z,66.63
2023-02-11T10:36:48.849Z,65.87
2023-02-11T10:46:52.272Z,67.38
2023-02-11T10:57:00.463Z,67.56
2023-02-11T11:07:21.981Z,69.82
2023-02-11T11:17:24.466Z,68.41
2023-02-11T11:27:26.880Z,69.20
2023-02-11T11:37:31.987Z,67.88
2023-02-11T11:47:45.118Z,67.64
2023-02-11T11:57:48.106Z,67.94
2023-02-11T12:08:27.899Z,67.69
2023-02-11T12:19:04.978Z,69.25
2023-02-11T12:29:37.188Z,71.05
2023-02-11T12:40:13.114Z,70.41
2023-02-11T12:50:21.394Z,71.21
2023-02-11T13:00:29.715Z,71.35
2023-02-11T13:10:36.222Z,70.81
2023-02-11T13:20:52.108Z,70.30
2023-02-11T13:31:02.825Z,71.20
2023-02-11T13:41:28.912Z,73.01
2023-02-11T13:51:38.395Z,73.43
2023-02-11T14:02:08.175Z,72.45
2023-02-11T14:12:21.764Z,72.05
2023-02-11T14:22:39.944Z,72.64
2023-02-11T14:33:06.770Z,72.03
2023-02-11T14:43:16.922Z,72.95
2023-02-11T14:53:23.651Z,73.41
2023-02-11T15:03:33.236Z,73.70
2023-02-11T15:13:35.556Z,73.96
2023-02-11T15:23:39.073Z,74.27
2023-02-11T15:33:42.256Z,74.59
2023-02-11T15:43:51.184Z,74.39
2023-02-11T15:53:57.182Z,75.33
2023-02-11T16:04:00.271Z,75.49
2023-02-11T16:14:19.494Z,76.14
2023-02-11T16:24:29.157Z,77.03
2023-02-11T16:34:31.361Z,77.13
2023-02-11T16:44:34.613Z,77.86
2023-02-11T16:54:36.846Z,77.40
2023-02-11T17:04:39.198Z,78.50
2023-02-11T17:14:41.488Z,78.19
2023-02-11T17:24:43.734Z,78.85
2023-02-11T17:34:46.030Z,79.96
2023-02-11T17:44:48.297Z,78.86
2023-02-11T17:54:50.531Z,79.02
2023-02-11T18:04:53.432Z,78.37
2023-02-11T18:14:58.044Z,77.88
2023-02-11T18:25:00.585Z,77.86
2023-02-11T18:35:02.763Z,78.15
2023-02-11T18:45:09.522Z,79.30
2023-02-11T18:55:11.760Z,78.31
2023-02-11T19:05:14.004Z,80.26
2023-02-11T19:15:16.349Z,80.67
2023-02-11T19:25:19.023Z,80.46
2023-02-11T19:35:21.306Z,80.52
2023-02-11T19:45:23.583Z,81.44
2023-02-11T19:55:25.825Z,81.37
2023-02-11T20:05:28.117Z,82.19
2023-02-11T20:15:30.339Z,82.99
2023-02-11T20:25:32.601Z,83.27
2023-02-11T20:35:34.790Z,83.46
2023-02-11T20:45:37.130Z,83.53
2023-02-11T20:55:39.564Z,83.53
2023-02-11T21:05:41.736Z,83.19
2023-02-11T21:15:44.044Z,83.14
2023-02-11T21:25:46.482Z,82.81
2023-02-11T21:40:11.494Z,82.65
2023-02-11T21:50:13.758Z,81.94
2023-02-11T22:00:16.736Z,81.67
2023-02-11T22:10:19.779Z,81.69
2023-02-11T22:20:22.147Z,81.44
2023-02-11T22:30:24.416Z,81.49
2023-02-11T22:40:26.690Z,81.90
2023-02-11T22:50:28.889Z,82.13
2023-02-11T23:00:35.480Z,82.63
2023-02-11T23:10:39.273Z,82.43
2023-02-11T23:20:43.624Z,82.61
2023-02-11T23:30:45.801Z,82.73
2023-02-11T23:40:47.986Z,82.65
2023-02-11T23:50:50.158Z,82.31
